sensor_id;sensor_type;location;lat;lon;timestamp;P1;durP1;ratioP1;P2;durP2;ratioP2
33760;SDS011;20084;47.912;19.044;2023-02-07T00:02:11;13.10;;;7.20;;
33760;SDS011;20084;47.912;19.044;2023-02-07T00:04:37;12.77;;;8.02;;
33760;SDS011;20084;47.912;19.044;2023-02-07T00:07:02;13.82;;;8.35;;
33760;SDS011;20084;47.912;19.044;2023-02-07T00:09:28;17.15;;;9.50;;
33760;SDS011;20084;47.912;19.044;2023-02-07T00:11:53;12.63;;;8.40;;
33760;SDS011;20084;47.912;19.044;2023-02-07T00:14:19;10.52;;;5.70;;
33760;SDS011;20084;47.912;19.044;2023-02-07T00:16:45;10.63;;;6.10;;
33760;SDS011;20084;47.912;19.044;2023-02-07T00:19:10;12.65;;;7.43;;
33760;SDS011;20084;47.912;19.044;2023-02-07T00:21:36;14.93;;;8.68;;
33760;SDS011;20084;47.912;19.044;2023-02-07T00:24:02;14.65;;;7.82;;
33760;SDS011;20084;47.912;19.044;2023-02-07T00:26:28;13.63;;;8.27;;
33760;SDS011;20084;47.912;19.044;2023-02-07T00:28:54;10.98;;;7.25;;
33760;SDS011;20084;47.912;19.044;2023-02-07T00:31:28;14.68;;;8.82;;
33760;SDS011;20084;47.912;19.044;2023-02-07T00:33:56;10.02;;;5.85;;
33760;SDS011;20084;47.912;19.044;2023-02-07T00:36:24;9.20;;;5.85;;
33760;SDS011;20084;47.912;19.044;2023-02-07T00:38:54;10.23;;;6.25;;
33760;SDS011;20084;47.912;19.044;2023-02-07T00:41:21;11.70;;;7.20;;
33760;SDS011;20084;47.912;19.044;2023-02-07T00:43:47;8.82;;;6.18;;
33760;SDS011;20084;47.912;19.044;2023-02-07T00:46:13;13.18;;;7.82;;
33760;SDS011;20084;47.912;19.044;2023-02-07T00:48:39;11.60;;;6.60;;
33760;SDS011;20084;47.912;19.044;2023-02-07T00:51:05;11.48;;;6.38;;
33760;SDS011;20084;47.912;19.044;2023-02-07T00:53:31;14.48;;;9.13;;
33760;SDS011;20084;47.912;19.044;2023-02-07T00:55:57;20.15;;;12.35;;
33760;SDS011;20084;47.912;19.044;2023-02-07T00:58:23;26.88;;;14.43;;
33760;SDS011;20084;47.912;19.044;2023-02-07T01:00:49;30.98;;;18.15;;
33760;SDS011;20084;47.912;19.044;2023-02-07T01:03:14;31.80;;;18.42;;
33760;SDS011;20084;47.912;19.044;2023-02-07T01:05:41;27.38;;;15.07;;
33760;SDS011;20084;47.912;19.044;2023-02-07T01:08:07;29.27;;;15.25;;
33760;SDS011;20084;47.912;19.044;2023-02-07T01:10:32;19.92;;;11.80;;
33760;SDS011;20084;47.912;19.044;2023-02-07T01:12:58;23.13;;;13.10;;
33760;SDS011;20084;47.912;19.044;2023-02-07T01:15:24;23.02;;;13.25;;
33760;SDS011;20084;47.912;19.044;2023-02-07T01:17:50;25.48;;;14.68;;
33760;SDS011;20084;47.912;19.044;2023-02-07T01:20:17;27.13;;;15.65;;
33760;SDS011;20084;47.912;19.044;2023-02-07T01:22:43;27.55;;;16.70;;
33760;SDS011;20084;47.912;19.044;2023-02-07T01:25:09;30.88;;;16.73;;
33760;SDS011;20084;47.912;19.044;2023-02-07T01:27:35;28.02;;;16.17;;
33760;SDS011;20084;47.912;19.044;2023-02-07T01:30:00;29.23;;;16.80;;
33760;SDS011;20084;47.912;19.044;2023-02-07T01:32:26;35.42;;;20.00;;
33760;SDS011;20084;47.912;19.044;2023-02-07T01:34:52;30.83;;;19.25;;
33760;SDS011;20084;47.912;19.044;2023-02-07T01:37:18;28.58;;;17.52;;
33760;SDS011;20084;47.912;19.044;2023-02-07T01:39:45;38.17;;;20.92;;
33760;SDS011;20084;47.912;19.044;2023-02-07T01:42:14;38.63;;;21.45;;
33760;SDS011;20084;47.912;19.044;2023-02-07T01:47:08;51.80;;;25.92;;
33760;SDS011;20084;47.912;19.044;2023-02-07T01:49:41;33.60;;;18.40;;
33760;SDS011;20084;47.912;19.044;2023-02-07T01:52:12;37.40;;;19.95;;
33760;SDS011;20084;47.912;19.044;2023-02-07T01:54:50;38.25;;;20.70;;
33760;SDS011;20084;47.912;19.044;2023-02-07T01:57:20;41.20;;;22.05;;
33760;SDS011;20084;47.912;19.044;2023-02-07T01:59:48;44.00;;;22.10;;
33760;SDS011;20084;47.912;19.044;2023-02-07T02:02:16;41.45;;;22.50;;
33760;SDS011;20084;47.912;19.044;2023-02-07T02:04:45;38.35;;;20.38;;
33760;SDS011;20084;47.912;19.044;2023-02-07T02:07:13;38.92;;;21.25;;
33760;SDS011;20084;47.912;19.044;2023-02-07T02:09:40;40.92;;;22.30;;
33760;SDS011;20084;47.912;19.044;2023-02-07T02:22:48;37.75;;;19.38;;
33760;SDS011;20084;47.912;19.044;2023-02-07T02:36:49;27.63;;;15.85;;
33760;SDS011;20084;47.912;19.044;2023-02-07T02:42:10;26.50;;;14.15;;
33760;SDS011;20084;47.912;19.044;2023-02-07T02:47:17;18.95;;;8.95;;
33760;SDS011;20084;47.912;19.044;2023-02-07T02:49:45;14.70;;;8.15;;
33760;SDS011;20084;47.912;19.044;2023-02-07T02:52:12;14.13;;;7.55;;
33760;SDS011;20084;47.912;19.044;2023-02-07T02:54:38;10.68;;;6.30;;
33760;SDS011;20084;47.912;19.044;2023-02-07T03:05:09;23.67;;;13.55;;
33760;SDS011;20084;47.912;19.044;2023-02-07T03:08:24;22.73;;;13.35;;
33760;SDS011;20084;47.912;19.044;2023-02-07T03:13:43;21.23;;;11.02;;
33760;SDS011;20084;47.912;19.044;2023-02-07T03:16:23;15.05;;;9.18;;
33760;SDS011;20084;47.912;19.044;2023-02-07T03:21:59;9.05;;;5.93;;
33760;SDS011;20084;47.912;19.044;2023-02-07T03:24:41;20.95;;;10.70;;
33760;SDS011;20084;47.912;19.044;2023-02-07T03:27:12;19.38;;;10.98;;
33760;SDS011;20084;47.912;19.044;2023-02-07T03:29:41;18.95;;;11.55;;
33760;SDS011;20084;47.912;19.044;2023-02-07T03:32:10;64.93;;;30.88;;
33760;SDS011;20084;47.912;19.044;2023-02-07T03:34:42;52.90;;;25.65;;
33760;SDS011;20084;47.912;19.044;2023-02-07T03:37:18;46.65;;;21.95;;
33760;SDS011;20084;47.912;19.044;2023-02-07T03:39:45;34.55;;;18.13;;
33760;SDS011;20084;47.912;19.044;2023-02-07T03:42:22;24.85;;;12.55;;
33760;SDS011;20084;47.912;19.044;2023-02-07T03:44:56;22.77;;;13.27;;
33760;SDS011;20084;47.912;19.044;2023-02-07T03:47:23;20.90;;;11.98;;
33760;SDS011;20084;47.912;19.044;2023-02-07T03:49:51;29.52;;;15.27;;
33760;SDS011;20084;47.912;19.044;2023-02-07T03:52:17;26.20;;;14.45;;
33760;SDS011;20084;47.912;19.044;2023-02-07T03:54:43;31.13;;;17.73;;
33760;SDS011;20084;47.912;19.044;2023-02-07T03:57:09;42.33;;;20.20;;
33760;SDS011;20084;47.912;19.044;2023-02-07T03:59:35;38.30;;;19.08;;
33760;SDS011;20084;47.912;19.044;2023-02-07T04:02:00;24.65;;;14.23;;
33760;SDS011;20084;47.912;19.044;2023-02-07T04:04:26;22.10;;;12.07;;
33760;SDS011;20084;47.912;19.044;2023-02-07T04:06:53;15.10;;;9.48;;
33760;SDS011;20084;47.912;19.044;2023-02-07T04:09:18;21.00;;;10.85;;
33760;SDS011;20084;47.912;19.044;2023-02-07T04:11:47;20.38;;;10.70;;
33760;SDS011;20084;47.912;19.044;2023-02-07T04:14:13;20.88;;;10.82;;
33760;SDS011;20084;47.912;19.044;2023-02-07T04:16:39;19.00;;;11.10;;
33760;SDS011;20084;47.912;19.044;2023-02-07T04:19:04;22.42;;;11.43;;
33760;SDS011;20084;47.912;19.044;2023-02-07T04:21:30;19.15;;;11.35;;
33760;SDS011;20084;47.912;19.044;2023-02-07T04:23:56;28.70;;;16.35;;
33760;SDS011;20084;47.912;19.044;2023-02-07T04:26:21;32.63;;;16.98;;
33760;SDS011;20084;47.912;19.044;2023-02-07T04:28:47;32.25;;;19.27;;
33760;SDS011;20084;47.912;19.044;2023-02-07T04:31:13;31.67;;;19.60;;
33760;SDS011;20084;47.912;19.044;2023-02-07T04:33:38;31.65;;;18.25;;
33760;SDS011;20084;47.912;19.044;2023-02-07T04:36:04;32.60;;;18.10;;
33760;SDS011;20084;47.912;19.044;2023-02-07T04:38:30;30.42;;;18.17;;
33760;SDS011;20084;47.912;19.044;2023-02-07T04:40:57;36.60;;;20.13;;
33760;SDS011;20084;47.912;19.044;2023-02-07T04:43:33;35.50;;;19.38;;
33760;SDS011;20084;47.912;19.044;2023-02-07T04:46:00;29.03;;;17.17;;
33760;SDS011;20084;47.912;19.044;2023-02-07T04:48:27;24.33;;;14.80;;
33760;SDS011;20084;47.912;19.044;2023-02-07T04:50:52;31.60;;;18.40;;
33760;SDS011;20084;47.912;19.044;2023-02-07T04:53:18;37.10;;;20.10;;
33760;SDS011;20084;47.912;19.044;2023-02-07T04:55:47;35.47;;;20.02;;
33760;SDS011;20084;47.912;19.044;2023-02-07T04:58:14;9.18;;;5.95;;
33760;SDS011;20084;47.912;19.044;2023-02-07T05:00:39;12.13;;;7.25;;
33760;SDS011;20084;47.912;19.044;2023-02-07T05:03:05;10.23;;;5.97;;
33760;SDS011;20084;47.912;19.044;2023-02-07T05:05:31;11.73;;;6.88;;
33760;SDS011;20084;47.912;19.044;2023-02-07T05:07:56;29.10;;;14.38;;
33760;SDS011;20084;47.912;19.044;2023-02-07T05:10:22;39.63;;;19.85;;
33760;SDS011;20084;47.912;19.044;2023-02-07T05:12:47;60.83;;;29.33;;
33760;SDS011;20084;47.912;19.044;2023-02-07T05:15:14;69.32;;;34.50;;
33760;SDS011;20084;47.912;19.044;2023-02-07T05:17:39;36.90;;;19.75;;
33760;SDS011;20084;47.912;19.044;2023-02-07T05:20:05;25.38;;;13.68;;
33760;SDS011;20084;47.912;19.044;2023-02-07T05:22:32;14.10;;;9.23;;
33760;SDS011;20084;47.912;19.044;2023-02-07T05:24:57;13.00;;;7.82;;
33760;SDS011;20084;47.912;19.044;2023-02-07T05:27:23;12.13;;;8.13;;
33760;SDS011;20084;47.912;19.044;2023-02-07T05:29:49;12.75;;;7.47;;
33760;SDS011;20084;47.912;19.044;2023-02-07T05:32:15;14.48;;;8.80;;
33760;SDS011;20084;47.912;19.044;2023-02-07T05:35:00;13.63;;;8.20;;
33760;SDS011;20084;47.912;19.044;2023-02-07T05:37:26;15.80;;;7.88;;
33760;SDS011;20084;47.912;19.044;2023-02-07T05:39:51;17.63;;;9.75;;
33760;SDS011;20084;47.912;19.044;2023-02-07T05:42:18;18.67;;;9.85;;
33760;SDS011;20084;47.912;19.044;2023-02-07T05:44:44;19.15;;;12.20;;
33760;SDS011;20084;47.912;19.044;2023-02-07T05:47:09;28.05;;;14.23;;
33760;SDS011;20084;47.912;19.044;2023-02-07T05:49:35;25.42;;;15.13;;
33760;SDS011;20084;47.912;19.044;2023-02-07T05:52:03;24.90;;;14.80;;
33760;SDS011;20084;47.912;19.044;2023-02-07T05:54:29;23.40;;;13.25;;
33760;SDS011;20084;47.912;19.044;2023-02-07T05:56:55;36.60;;;16.55;;
33760;SDS011;20084;47.912;19.044;2023-02-07T05:59:20;34.58;;;18.00;;
33760;SDS011;20084;47.912;19.044;2023-02-07T06:01:46;40.47;;;20.35;;
33760;SDS011;20084;47.912;19.044;2023-02-07T06:04:12;45.97;;;26.10;;
33760;SDS011;20084;47.912;19.044;2023-02-07T06:06:37;41.83;;;22.98;;
33760;SDS011;20084;47.912;19.044;2023-02-07T06:09:03;64.85;;;28.73;;
33760;SDS011;20084;47.912;19.044;2023-02-07T06:11:29;82.70;;;36.97;;
33760;SDS011;20084;47.912;19.044;2023-02-07T06:13:54;94.57;;;41.20;;
33760;SDS011;20084;47.912;19.044;2023-02-07T06:16:20;108.70;;;50.97;;
33760;SDS011;20084;47.912;19.044;2023-02-07T06:18:46;81.93;;;40.95;;
33760;SDS011;20084;47.912;19.044;2023-02-07T06:21:11;52.13;;;28.95;;
33760;SDS011;20084;47.912;19.044;2023-02-07T06:23:37;51.08;;;24.58;;
33760;SDS011;20084;47.912;19.044;2023-02-07T06:26:03;37.03;;;17.58;;
33760;SDS011;20084;47.912;19.044;2023-02-07T06:28:28;27.30;;;14.55;;
33760;SDS011;20084;47.912;19.044;2023-02-07T06:30:54;35.95;;;18.90;;
33760;SDS011;20084;47.912;19.044;2023-02-07T06:33:20;35.42;;;18.83;;
33760;SDS011;20084;47.912;19.044;2023-02-07T06:35:45;32.58;;;18.92;;
33760;SDS011;20084;47.912;19.044;2023-02-07T06:38:14;37.42;;;19.15;;
33760;SDS011;20084;47.912;19.044;2023-02-07T06:40:41;31.90;;;18.25;;
33760;SDS011;20084;47.912;19.044;2023-02-07T06:43:07;34.03;;;19.40;;
33760;SDS011;20084;47.912;19.044;2023-02-07T06:45:33;43.10;;;21.48;;
33760;SDS011;20084;47.912;19.044;2023-02-07T06:47:59;39.25;;;21.70;;
33760;SDS011;20084;47.912;19.044;2023-02-07T06:50:25;45.33;;;23.95;;
33760;SDS011;20084;47.912;19.044;2023-02-07T06:52:50;47.10;;;25.65;;
33760;SDS011;20084;47.912;19.044;2023-02-07T06:55:16;41.63;;;22.50;;
33760;SDS011;20084;47.912;19.044;2023-02-07T06:57:42;56.13;;;26.23;;
33760;SDS011;20084;47.912;19.044;2023-02-07T07:00:08;56.70;;;28.15;;
33760;SDS011;20084;47.912;19.044;2023-02-07T07:02:34;53.95;;;27.23;;
33760;SDS011;20084;47.912;19.044;2023-02-07T07:04:59;45.38;;;24.85;;
33760;SDS011;20084;47.912;19.044;2023-02-07T07:07:25;43.25;;;24.75;;
33760;SDS011;20084;47.912;19.044;2023-02-07T07:09:51;55.90;;;29.40;;
33760;SDS011;20084;47.912;19.044;2023-02-07T07:12:16;51.90;;;27.88;;
33760;SDS011;20084;47.912;19.044;2023-02-07T07:14:42;56.22;;;28.55;;
33760;SDS011;20084;47.912;19.044;2023-02-07T07:17:07;52.25;;;27.65;;
33760;SDS011;20084;47.912;19.044;2023-02-07T07:19:33;57.55;;;31.73;;
33760;SDS011;20084;47.912;19.044;2023-02-07T07:21:59;65.82;;;34.60;;
33760;SDS011;20084;47.912;19.044;2023-02-07T07:24:24;58.67;;;31.55;;
33760;SDS011;20084;47.912;19.044;2023-02-07T07:26:51;51.33;;;27.52;;
33760;SDS011;20084;47.912;19.044;2023-02-07T07:29:17;50.38;;;27.23;;
33760;SDS011;20084;47.912;19.044;2023-02-07T07:31:43;40.38;;;23.83;;
33760;SDS011;20084;47.912;19.044;2023-02-07T07:34:10;45.40;;;23.13;;
33760;SDS011;20084;47.912;19.044;2023-02-07T07:36:36;38.85;;;20.63;;
33760;SDS011;20084;47.912;19.044;2023-02-07T07:39:02;32.28;;;18.02;;
33760;SDS011;20084;47.912;19.044;2023-02-07T07:41:28;25.88;;;14.85;;
33760;SDS011;20084;47.912;19.044;2023-02-07T07:43:53;21.00;;;11.80;;
33760;SDS011;20084;47.912;19.044;2023-02-07T07:46:19;21.88;;;14.43;;
33760;SDS011;20084;47.912;19.044;2023-02-07T07:48:45;20.17;;;13.00;;
33760;SDS011;20084;47.912;19.044;2023-02-07T07:51:11;17.88;;;11.88;;
33760;SDS011;20084;47.912;19.044;2023-02-07T07:53:36;16.35;;;10.10;;
33760;SDS011;20084;47.912;19.044;2023-02-07T07:56:02;16.95;;;10.85;;
33760;SDS011;20084;47.912;19.044;2023-02-07T07:58:28;17.42;;;10.75;;
33760;SDS011;20084;47.912;19.044;2023-02-07T08:00:54;18.70;;;10.57;;
33760;SDS011;20084;47.912;19.044;2023-02-07T08:03:20;14.13;;;9.98;;
33760;SDS011;20084;47.912;19.044;2023-02-07T08:05:47;22.50;;;12.68;;
33760;SDS011;20084;47.912;19.044;2023-02-07T08:08:13;20.83;;;12.93;;
33760;SDS011;20084;47.912;19.044;2023-02-07T08:10:40;23.02;;;15.38;;
33760;SDS011;20084;47.912;19.044;2023-02-07T08:13:06;35.70;;;19.50;;
33760;SDS011;20084;47.912;19.044;2023-02-07T08:15:31;31.70;;;18.70;;
33760;SDS011;20084;47.912;19.044;2023-02-07T08:17:57;28.52;;;17.10;;
33760;SDS011;20084;47.912;19.044;2023-02-07T08:20:23;27.25;;;17.27;;
33760;SDS011;20084;47.912;19.044;2023-02-07T08:22:49;38.03;;;23.65;;
33760;SDS011;20084;47.912;19.044;2023-02-07T08:25:15;47.25;;;26.70;;
33760;SDS011;20084;47.912;19.044;2023-02-07T08:27:40;63.13;;;34.03;;
33760;SDS011;20084;47.912;19.044;2023-02-07T08:30:07;47.60;;;28.13;;
33760;SDS011;20084;47.912;19.044;2023-02-07T08:32:35;48.25;;;27.75;;
33760;SDS011;20084;47.912;19.044;2023-02-07T08:35:00;36.95;;;21.15;;
33760;SDS011;20084;47.912;19.044;2023-02-07T08:37:26;26.38;;;16.48;;
33760;SDS011;20084;47.912;19.044;2023-02-07T08:39:52;25.45;;;16.92;;
33760;SDS011;20084;47.912;19.044;2023-02-07T08:42:18;23.42;;;15.45;;
33760;SDS011;20084;47.912;19.044;2023-02-07T08:44:45;21.25;;;14.45;;
33760;SDS011;20084;47.912;19.044;2023-02-07T08:47:11;29.17;;;16.73;;
33760;SDS011;20084;47.912;19.044;2023-02-07T08:49:37;33.05;;;21.13;;
33760;SDS011;20084;47.912;19.044;2023-02-07T08:52:02;27.77;;;16.55;;
33760;SDS011;20084;47.912;19.044;2023-02-07T08:54:29;23.98;;;14.45;;
33760;SDS011;20084;47.912;19.044;2023-02-07T08:56:54;22.58;;;14.52;;
33760;SDS011;20084;47.912;19.044;2023-02-07T08:59:20;18.08;;;12.52;;
33760;SDS011;20084;47.912;19.044;2023-02-07T09:01:46;16.20;;;10.93;;
33760;SDS011;20084;47.912;19.044;2023-02-07T09:04:12;16.70;;;10.70;;
33760;SDS011;20084;47.912;19.044;2023-02-07T09:06:37;16.20;;;10.43;;
33760;SDS011;20084;47.912;19.044;2023-02-07T09:09:04;17.58;;;11.00;;
33760;SDS011;20084;47.912;19.044;2023-02-07T09:11:30;15.90;;;10.77;;
33760;SDS011;20084;47.912;19.044;2023-02-07T09:13:56;16.20;;;10.80;;
33760;SDS011;20084;47.912;19.044;2023-02-07T09:16:21;17.50;;;11.10;;
33760;SDS011;20084;47.912;19.044;2023-02-07T09:18:48;18.55;;;11.48;;
33760;SDS011;20084;47.912;19.044;2023-02-07T09:21:16;15.70;;;10.88;;
33760;SDS011;20084;47.912;19.044;2023-02-07T09:23:42;15.68;;;11.05;;
33760;SDS011;20084;47.912;19.044;2023-02-07T09:26:08;20.95;;;12.00;;
33760;SDS011;20084;47.912;19.044;2023-02-07T09:28:39;17.40;;;11.65;;
33760;SDS011;20084;47.912;19.044;2023-02-07T09:31:09;18.48;;;12.25;;
33760;SDS011;20084;47.912;19.044;2023-02-07T09:33:35;21.45;;;12.75;;
33760;SDS011;20084;47.912;19.044;2023-02-07T09:36:01;18.83;;;12.80;;
33760;SDS011;20084;47.912;19.044;2023-02-07T09:38:27;18.88;;;13.15;;
33760;SDS011;20084;47.912;19.044;2023-02-07T09:40:53;21.70;;;12.73;;
33760;SDS011;20084;47.912;19.044;2023-02-07T09:46:28;18.58;;;13.23;;
33760;SDS011;20084;47.912;19.044;2023-02-07T09:53:58;20.50;;;13.27;;
33760;SDS011;20084;47.912;19.044;2023-02-07T09:56:25;21.92;;;13.55;;
33760;SDS011;20084;47.912;19.044;2023-02-07T09:59:03;21.05;;;13.35;;
33760;SDS011;20084;47.912;19.044;2023-02-07T10:01:52;21.15;;;14.48;;
33760;SDS011;20084;47.912;19.044;2023-02-07T10:04:26;20.35;;;12.90;;
33760;SDS011;20084;47.912;19.044;2023-02-07T10:06:56;21.38;;;13.18;;
33760;SDS011;20084;47.912;19.044;2023-02-07T10:09:30;22.15;;;13.48;;
33760;SDS011;20084;47.912;19.044;2023-02-07T10:20:25;18.55;;;11.95;;
33760;SDS011;20084;47.912;19.044;2023-02-07T10:25:52;26.52;;;17.08;;
33760;SDS011;20084;47.912;19.044;2023-02-07T10:28:28;16.65;;;10.95;;
33760;SDS011;20084;47.912;19.044;2023-02-07T10:31:18;15.07;;;10.68;;
33760;SDS011;20084;47.912;19.044;2023-02-07T10:33:51;17.67;;;11.65;;
33760;SDS011;20084;47.912;19.044;2023-02-07T10:36:22;21.92;;;13.65;;
33760;SDS011;20084;47.912;19.044;2023-02-07T10:38:52;20.77;;;14.18;;
33760;SDS011;20084;47.912;19.044;2023-02-07T10:44:04;18.92;;;12.73;;
33760;SDS011;20084;47.912;19.044;2023-02-07T10:46:33;18.10;;;11.68;;
33760;SDS011;20084;47.912;19.044;2023-02-07T10:49:00;19.83;;;12.45;;
33760;SDS011;20084;47.912;19.044;2023-02-07T10:51:28;18.95;;;12.32;;
33760;SDS011;20084;47.912;19.044;2023-02-07T10:54:02;17.98;;;12.15;;
33760;SDS011;20084;47.912;19.044;2023-02-07T10:56:32;18.33;;;11.98;;
33760;SDS011;20084;47.912;19.044;2023-02-07T10:59:01;20.55;;;12.82;;
33760;SDS011;20084;47.912;19.044;2023-02-07T11:01:28;17.98;;;12.07;;
33760;SDS011;20084;47.912;19.044;2023-02-07T11:03:56;17.90;;;11.00;;
33760;SDS011;20084;47.912;19.044;2023-02-07T11:06:26;17.45;;;12.05;;
33760;SDS011;20084;47.912;19.044;2023-02-07T11:09:16;19.63;;;12.93;;
33760;SDS011;20084;47.912;19.044;2023-02-07T11:11:50;17.83;;;11.55;;
33760;SDS011;20084;47.912;19.044;2023-02-07T11:14:19;58.10;;;38.38;;
33760;SDS011;20084;47.912;19.044;2023-02-07T11:16:51;31.50;;;21.33;;
33760;SDS011;20084;47.912;19.044;2023-02-07T11:19:19;44.15;;;29.20;;
33760;SDS011;20084;47.912;19.044;2023-02-07T11:21:48;17.75;;;11.77;;
33760;SDS011;20084;47.912;19.044;2023-02-07T11:24:19;21.52;;;16.13;;
33760;SDS011;20084;47.912;19.044;2023-02-07T11:26:54;25.00;;;15.00;;
33760;SDS011;20084;47.912;19.044;2023-02-07T11:29:27;22.17;;;13.00;;
33760;SDS011;20084;47.912;19.044;2023-02-07T11:31:55;17.50;;;10.98;;
33760;SDS011;20084;47.912;19.044;2023-02-07T11:39:49;17.20;;;11.65;;
33760;SDS011;20084;47.912;19.044;2023-02-07T11:42:17;19.00;;;11.35;;
33760;SDS011;20084;47.912;19.044;2023-02-07T11:44:53;15.05;;;10.63;;
33760;SDS011;20084;47.912;19.044;2023-02-07T11:47:25;16.92;;;11.43;;
33760;SDS011;20084;47.912;19.044;2023-02-07T11:49:58;18.60;;;13.05;;
33760;SDS011;20084;47.912;19.044;2023-02-07T11:52:26;14.50;;;10.00;;
33760;SDS011;20084;47.912;19.044;2023-02-07T11:54:58;15.10;;;9.43;;
33760;SDS011;20084;47.912;19.044;2023-02-07T11:57:28;15.93;;;9.88;;
33760;SDS011;20084;47.912;19.044;2023-02-07T12:02:48;11.18;;;8.68;;
33760;SDS011;20084;47.912;19.044;2023-02-07T12:05:25;20.63;;;13.77;;
33760;SDS011;20084;47.912;19.044;2023-02-07T12:08:01;11.68;;;8.43;;
33760;SDS011;20084;47.912;19.044;2023-02-07T12:10:34;11.95;;;8.30;;
33760;SDS011;20084;47.912;19.044;2023-02-07T12:13:10;14.98;;;9.10;;
33760;SDS011;20084;47.912;19.044;2023-02-07T12:15:59;11.88;;;8.23;;
33760;SDS011;20084;47.912;19.044;2023-02-07T12:18:35;13.82;;;8.27;;
33760;SDS011;20084;47.912;19.044;2023-02-07T12:26:21;12.32;;;8.50;;
33760;SDS011;20084;47.912;19.044;2023-02-07T12:34:24;40.38;;;26.50;;
33760;SDS011;20084;47.912;19.044;2023-02-07T12:37:00;13.00;;;9.57;;
33760;SDS011;20084;47.912;19.044;2023-02-07T12:39:53;15.27;;;8.90;;
33760;SDS011;20084;47.912;19.044;2023-02-07T12:42:28;13.43;;;9.00;;
33760;SDS011;20084;47.912;19.044;2023-02-07T12:45:08;13.35;;;8.05;;
33760;SDS011;20084;47.912;19.044;2023-02-07T13:18:45;13.25;;;8.77;;
33760;SDS011;20084;47.912;19.044;2023-02-07T13:24:14;12.48;;;8.57;;
33760;SDS011;20084;47.912;19.044;2023-02-07T13:26:44;13.00;;;8.85;;
33760;SDS011;20084;47.912;19.044;2023-02-07T13:29:14;14.23;;;9.25;;
33760;SDS011;20084;47.912;19.044;2023-02-07T13:31:45;13.93;;;8.68;;
33760;SDS011;20084;47.912;19.044;2023-02-07T13:34:34;13.35;;;9.43;;
33760;SDS011;20084;47.912;19.044;2023-02-07T13:37:22;14.00;;;9.55;;
33760;SDS011;20084;47.912;19.044;2023-02-07T13:39:58;14.23;;;9.65;;
33760;SDS011;20084;47.912;19.044;2023-02-07T13:42:39;19.63;;;9.65;;
33760;SDS011;20084;47.912;19.044;2023-02-07T13:45:33;14.02;;;10.18;;
33760;SDS011;20084;47.912;19.044;2023-02-07T13:48:20;13.75;;;9.68;;
33760;SDS011;20084;47.912;19.044;2023-02-07T13:51:02;15.15;;;10.90;;
33760;SDS011;20084;47.912;19.044;2023-02-07T13:56:58;12.25;;;9.20;;
33760;SDS011;20084;47.912;19.044;2023-02-07T14:00:03;14.40;;;10.65;;
33760;SDS011;20084;47.912;19.044;2023-02-07T14:02:38;17.77;;;10.60;;
33760;SDS011;20084;47.912;19.044;2023-02-07T14:05:10;15.20;;;10.05;;
33760;SDS011;20084;47.912;19.044;2023-02-07T14:07:47;14.82;;;9.45;;
33760;SDS011;20084;47.912;19.044;2023-02-07T14:13:18;16.15;;;10.95;;
33760;SDS011;20084;47.912;19.044;2023-02-07T14:21:01;14.20;;;10.15;;
33760;SDS011;20084;47.912;19.044;2023-02-07T14:34:20;12.43;;;9.05;;
33760;SDS011;20084;47.912;19.044;2023-02-07T14:36:48;14.02;;;10.88;;
33760;SDS011;20084;47.912;19.044;2023-02-07T14:41:45;15.32;;;11.07;;
33760;SDS011;20084;47.912;19.044;2023-02-07T14:44:22;12.23;;;9.80;;
33760;SDS011;20084;47.912;19.044;2023-02-07T14:46:55;14.05;;;10.18;;
33760;SDS011;20084;47.912;19.044;2023-02-07T14:49:30;16.10;;;10.18;;
33760;SDS011;20084;47.912;19.044;2023-02-07T14:52:04;13.25;;;10.18;;
33760;SDS011;20084;47.912;19.044;2023-02-07T15:12:57;12.20;;;9.70;;
33760;SDS011;20084;47.912;19.044;2023-02-07T15:15:27;13.10;;;9.80;;
33760;SDS011;20084;47.912;19.044;2023-02-07T15:18:24;56.92;;;33.38;;
33760;SDS011;20084;47.912;19.044;2023-02-07T15:20:53;71.18;;;42.20;;
33760;SDS011;20084;47.912;19.044;2023-02-07T15:23:21;29.45;;;21.35;;
33760;SDS011;20084;47.912;19.044;2023-02-07T15:25:48;18.58;;;11.38;;
33760;SDS011;20084;47.912;19.044;2023-02-07T15:33:26;13.02;;;9.60;;
33760;SDS011;20084;47.912;19.044;2023-02-07T15:35:54;12.23;;;9.52;;
33760;SDS011;20084;47.912;19.044;2023-02-07T15:38:23;12.02;;;8.73;;
33760;SDS011;20084;47.912;19.044;2023-02-07T15:40:51;13.05;;;9.70;;
33760;SDS011;20084;47.912;19.044;2023-02-07T15:43:23;13.88;;;9.30;;
33760;SDS011;20084;47.912;19.044;2023-02-07T15:46:03;12.65;;;8.88;;
33760;SDS011;20084;47.912;19.044;2023-02-07T15:48:31;11.15;;;8.70;;
33760;SDS011;20084;47.912;19.044;2023-02-07T15:51:08;23.75;;;9.38;;
33760;SDS011;20084;47.912;19.044;2023-02-07T15:53:35;13.30;;;9.02;;
33760;SDS011;20084;47.912;19.044;2023-02-07T15:56:03;13.50;;;9.10;;
33760;SDS011;20084;47.912;19.044;2023-02-07T15:58:33;31.58;;;10.23;;
33760;SDS011;20084;47.912;19.044;2023-02-07T16:01:02;21.02;;;10.95;;
33760;SDS011;20084;47.912;19.044;2023-02-07T16:03:34;18.58;;;10.18;;
33760;SDS011;20084;47.912;19.044;2023-02-07T16:06:06;14.85;;;10.05;;
33760;SDS011;20084;47.912;19.044;2023-02-07T16:16:47;16.60;;;11.57;;
33760;SDS011;20084;47.912;19.044;2023-02-07T16:19:18;18.92;;;11.73;;
33760;SDS011;20084;47.912;19.044;2023-02-07T16:21:45;18.20;;;11.75;;
33760;SDS011;20084;47.912;19.044;2023-02-07T16:24:17;22.75;;;13.25;;
33760;SDS011;20084;47.912;19.044;2023-02-07T16:26:46;19.90;;;12.38;;
33760;SDS011;20084;47.912;19.044;2023-02-07T16:29:17;20.30;;;12.55;;
33760;SDS011;20084;47.912;19.044;2023-02-07T16:31:46;26.70;;;14.63;;
33760;SDS011;20084;47.912;19.044;2023-02-07T16:34:13;27.63;;;15.77;;
33760;SDS011;20084;47.912;19.044;2023-02-07T16:36:40;29.60;;;16.50;;
33760;SDS011;20084;47.912;19.044;2023-02-07T16:39:06;23.02;;;14.43;;
33760;SDS011;20084;47.912;19.044;2023-02-07T16:41:33;29.63;;;14.85;;
33760;SDS011;20084;47.912;19.044;2023-02-07T16:44:04;18.90;;;12.35;;
33760;SDS011;20084;47.912;19.044;2023-02-07T16:46:31;32.42;;;14.13;;
33760;SDS011;20084;47.912;19.044;2023-02-07T16:48:58;23.10;;;14.77;;
33760;SDS011;20084;47.912;19.044;2023-02-07T16:51:23;21.73;;;13.52;;
33760;SDS011;20084;47.912;19.044;2023-02-07T16:53:49;24.08;;;14.30;;
33760;SDS011;20084;47.912;19.044;2023-02-07T16:56:25;24.20;;;13.65;;
33760;SDS011;20084;47.912;19.044;2023-02-07T16:58:51;23.42;;;13.15;;
33760;SDS011;20084;47.912;19.044;2023-02-07T17:01:18;20.63;;;13.68;;
33760;SDS011;20084;47.912;19.044;2023-02-07T17:06:17;16.10;;;10.57;;
33760;SDS011;20084;47.912;19.044;2023-02-07T17:08:44;14.40;;;9.90;;
33760;SDS011;20084;47.912;19.044;2023-02-07T17:11:14;17.98;;;11.32;;
33760;SDS011;20084;47.912;19.044;2023-02-07T17:13:44;18.35;;;11.68;;
33760;SDS011;20084;47.912;19.044;2023-02-07T17:16:13;22.67;;;14.15;;
33760;SDS011;20084;47.912;19.044;2023-02-07T17:18:39;21.75;;;14.07;;
33760;SDS011;20084;47.912;19.044;2023-02-07T17:21:05;46.53;;;24.08;;